sensor_id;sensor_type;location;lat;lon;timestamp;pressure;altitude;pressure_sealevel;temperature;humidity
12146;BME280;6136;47.032;15.398;2023-04-05T00:01:22;97896.06;;;-0.58;65.67
12146;BME280;6136;47.032;15.398;2023-04-05T00:03:52;97883.25;;;-0.73;66.42
12146;BME280;6136;47.032;15.398;2023-04-05T00:06:22;97897.13;;;-0.71;66.36
12146;BME280;6136;47.032;15.398;2023-04-05T00:08:52;97872.13;;;-0.83;64.87
12146;BME280;6136;47.032;15.398;2023-04-05T00:11:22;97886.88;;;-0.83;65.08
12146;BME280;6136;47.032;15.398;2023-04-05T00:13:50;97868.59;;;-0.79;65.13
12146;BME280;6136;47.032;15.398;2023-04-05T00:16:21;97890.19;;;-0.72;64.34
12146;BME280;6136;47.032;15.398;2023-04-05T00:18:50;97893.81;;;-0.85;63.22
12146;BME280;6136;47.032;15.398;2023-04-05T00:21:19;97897.34;;;-0.89;64.92
12146;BME280;6136;47.032;15.398;2023-04-05T00:23:48;97899.97;;;-0.89;66.24
12146;BME280;6136;47.032;15.398;2023-04-05T00:26:18;97888.78;;;-1.00;66.19
12146;BME280;6136;47.032;15.398;2023-04-05T00:28:51;97899.19;;;-0.97;65.96
12146;BME280;6136;47.032;15.398;2023-04-05T00:31:21;97896.50;;;-0.93;66.29
12146;BME280;6136;47.032;15.398;2023-04-05T00:33:50;97893.81;;;-0.82;66.44
12146;BME280;6136;47.032;15.398;2023-04-05T00:36:19;97881.66;;;-0.83;66.35
12146;BME280;6136;47.032;15.398;2023-04-05T00:38:47;97890.38;;;-0.89;66.99
12146;BME280;6136;47.032;15.398;2023-04-05T00:41:16;97890.47;;;-0.96;67.15
12146;BME280;6136;47.032;15.398;2023-04-05T00:43:45;97893.19;;;-1.05;67.81
12146;BME280;6136;47.032;15.398;2023-04-05T00:46:14;97896.63;;;-1.02;67.88
12146;BME280;6136;47.032;15.398;2023-04-05T00:48:44;97899.34;;;-1.12;68.00
12146;BME280;6136;47.032;15.398;2023-04-05T00:51:13;97880.38;;;-1.21;68.90
12146;BME280;6136;47.032;15.398;2023-04-05T00:53:41;97884.66;;;-1.18;68.94
12146;BME280;6136;47.032;15.398;2023-04-05T00:56:11;97890.69;;;-1.11;68.70
12146;BME280;6136;47.032;15.398;2023-04-05T00:58:40;97888.03;;;-1.10;68.55
12146;BME280;6136;47.032;15.398;2023-04-05T01:01:14;97890.63;;;-1.08;69.02
12146;BME280;6136;47.032;15.398;2023-04-05T01:03:50;97882.03;;;-1.17;69.60
12146;BME280;6136;47.032;15.398;2023-04-05T01:06:39;97894.16;;;-1.12;69.57
12146;BME280;6136;47.032;15.398;2023-04-05T01:09:19;97891.56;;;-1.14;69.45
12146;BME280;6136;47.032;15.398;2023-04-05T01:11:53;97886.44;;;-1.22;69.32
12146;BME280;6136;47.032;15.398;2023-04-05T01:14:23;97884.78;;;-1.29;69.47
12146;BME280;6136;47.032;15.398;2023-04-05T01:16:52;97880.44;;;-1.27;70.54
12146;BME280;6136;47.032;15.398;2023-04-05T01:19:28;97888.13;;;-1.18;69.85
12146;BME280;6136;47.032;15.398;2023-04-05T01:25:35;97886.50;;;-1.28;70.67
12146;BME280;6136;47.032;15.398;2023-04-05T01:28:22;97879.59;;;-1.30;70.88
12146;BME280;6136;47.032;15.398;2023-04-05T01:31:05;97859.66;;;-1.31;70.27
12146;BME280;6136;47.032;15.398;2023-04-05T01:33:43;97871.09;;;-1.47;70.64
12146;BME280;6136;47.032;15.398;2023-04-05T01:36:16;97870.28;;;-1.51;71.61
12146;BME280;6136;47.032;15.398;2023-04-05T01:38:50;97871.97;;;-1.47;71.56
12146;BME280;6136;47.032;15.398;2023-04-05T01:41:20;97876.44;;;-1.63;71.34
12146;BME280;6136;47.032;15.398;2023-04-05T01:43:48;97874.75;;;-1.68;71.79
12146;BME280;6136;47.032;15.398;2023-04-05T01:46:18;97861.03;;;-1.79;71.85
12146;BME280;6136;47.032;15.398;2023-04-05T01:48:47;97866.97;;;-1.70;72.21
12146;BME280;6136;47.032;15.398;2023-04-05T01:51:16;97864.44;;;-1.73;72.42
12146;BME280;6136;47.032;15.398;2023-04-05T01:53:45;97856.66;;;-1.77;73.18
12146;BME280;6136;47.032;15.398;2023-04-05T01:56:14;97869.56;;;-1.70;71.84
12146;BME280;6136;47.032;15.398;2023-04-05T01:58:42;97872.16;;;-1.68;72.74
12146;BME280;6136;47.032;15.398;2023-04-05T02:01:11;97860.97;;;-1.72;72.54
12146;BME280;6136;47.032;15.398;2023-04-05T02:03:40;97866.16;;;-1.75;72.80
12146;BME280;6136;47.032;15.398;2023-04-05T02:06:09;97878.28;;;-1.74;72.54
12146;BME280;6136;47.032;15.398;2023-04-05T02:08:37;97874.00;;;-1.79;73.13
12146;BME280;6136;47.032;15.398;2023-04-05T02:11:06;97866.22;;;-1.79;72.15
12146;BME280;6136;47.032;15.398;2023-04-05T02:13:34;97870.50;;;-1.75;72.80
12146;BME280;6136;47.032;15.398;2023-04-05T02:16:02;97879.22;;;-1.81;73.74
12146;BME280;6136;47.032;15.398;2023-04-05T02:18:31;97875.78;;;-1.84;73.91
12146;BME280;6136;47.032;15.398;2023-04-05T02:21:05;97869.66;;;-1.77;73.95
12146;BME280;6136;47.032;15.398;2023-04-05T02:23:36;97866.28;;;-1.88;73.32
12146;BME280;6136;47.032;15.398;2023-04-05T02:26:04;97852.50;;;-1.98;73.76
12146;BME280;6136;47.032;15.398;2023-04-05T02:28:33;97861.97;;;-1.92;74.98
12146;BME280;6136;47.032;15.398;2023-04-05T02:31:01;97870.56;;;-1.84;74.95
12146;BME280;6136;47.032;15.398;2023-04-05T02:33:29;97871.50;;;-1.91;74.47
12146;BME280;6136;47.032;15.398;2023-04-05T02:35:57;97872.41;;;-1.97;74.40
12146;BME280;6136;47.032;15.398;2023-04-05T02:38:27;97870.63;;;-1.87;75.22
12146;BME280;6136;47.032;15.398;2023-04-05T02:40:56;97862.88;;;-1.93;74.19
12146;BME280;6136;47.032;15.398;2023-04-05T02:43:24;97862.91;;;-1.97;74.58
12146;BME280;6136;47.032;15.398;2023-04-05T02:45:52;97865.53;;;-2.03;74.96
12146;BME280;6136;47.032;15.398;2023-04-05T02:48:22;97867.22;;;-1.96;75.39
12146;BME280;6136;47.032;15.398;2023-04-05T02:50:50;97856.78;;;-1.92;74.87
12146;BME280;6136;47.032;15.398;2023-04-05T02:53:19;97850.75;;;-1.93;75.39
12146;BME280;6136;47.032;15.398;2023-04-05T02:56:01;97862.03;;;-1.96;74.66
12146;BME280;6136;47.032;15.398;2023-04-05T02:58:32;97848.22;;;-2.01;75.32
12146;BME280;6136;47.032;15.398;2023-04-05T03:01:01;97850.72;;;-1.90;75.13
12146;BME280;6136;47.032;15.398;2023-04-05T03:03:33;97853.31;;;-1.88;74.44
12146;BME280;6136;47.032;15.398;2023-04-05T03:06:06;97855.13;;;-2.00;74.31
12146;BME280;6136;47.032;15.398;2023-04-05T03:08:55;97854.22;;;-1.94;75.45
12146;BME280;6136;47.032;15.398;2023-04-05T03:11:25;97857.75;;;-2.01;75.72
12146;BME280;6136;47.032;15.398;2023-04-05T03:13:56;97854.28;;;-2.03;74.94
12146;BME280;6136;47.032;15.398;2023-04-05T03:16:42;97841.31;;;-2.05;75.37
12146;BME280;6136;47.032;15.398;2023-04-05T03:19:31;97854.34;;;-2.08;75.49
12146;BME280;6136;47.032;15.398;2023-04-05T03:22:09;97851.78;;;-2.14;76.18
12146;BME280;6136;47.032;15.398;2023-04-05T03:24:38;97851.00;;;-2.23;75.85
12146;BME280;6136;47.032;15.398;2023-04-05T03:27:12;97855.34;;;-2.25;76.97
12146;BME280;6136;47.032;15.398;2023-04-05T03:30:13;97850.19;;;-2.30;76.56
12146;BME280;6136;47.032;15.398;2023-04-05T03:33:01;97848.41;;;-2.28;76.34
12146;BME280;6136;47.032;15.398;2023-04-05T03:35:37;97848.41;;;-2.25;76.26
12146;BME280;6136;47.032;15.398;2023-04-05T03:38:08;97854.47;;;-2.24;76.87
12146;BME280;6136;47.032;15.398;2023-04-05T03:40:43;97850.16;;;-2.25;76.17
12146;BME280;6136;47.032;15.398;2023-04-05T03:43:12;97861.41;;;-2.28;76.20
12146;BME280;6136;47.032;15.398;2023-04-05T03:45:41;97867.47;;;-2.29;76.39
12146;BME280;6136;47.032;15.398;2023-04-05T03:48:10;97841.59;;;-2.41;76.39
12146;BME280;6136;47.032;15.398;2023-04-05T03:50:38;97866.69;;;-2.39;76.44
12146;BME280;6136;47.032;15.398;2023-04-05T03:53:07;97870.16;;;-2.43;75.92
12146;BME280;6136;47.032;15.398;2023-04-05T03:55:36;97859.81;;;-2.50;76.67
12146;BME280;6136;47.032;15.398;2023-04-05T03:58:06;97861.59;;;-2.58;76.71
12146;BME280;6136;47.032;15.398;2023-04-05T04:00:36;97849.56;;;-2.70;76.76
12146;BME280;6136;47.032;15.398;2023-04-05T04:03:13;97859.84;;;-2.58;77.28
12146;BME280;6136;47.032;15.398;2023-04-05T04:05:45;97870.19;;;-2.52;77.35
12146;BME280;6136;47.032;15.398;2023-04-05T04:08:14;97877.09;;;-2.49;77.52
12146;BME280;6136;47.032;15.398;2023-04-05T04:10:42;97863.34;;;-2.63;77.37
12146;BME280;6136;47.032;15.398;2023-04-05T04:13:18;97883.19;;;-2.56;77.32
12146;BME280;6136;47.032;15.398;2023-04-05T04:15:58;97881.47;;;-2.59;77.89
12146;BME280;6136;47.032;15.398;2023-04-05T04:18:45;97873.69;;;-2.57;77.80
12146;BME280;6136;47.032;15.398;2023-04-05T04:21:22;97876.28;;;-2.57;78.12
12146;BME280;6136;47.032;15.398;2023-04-05T04:24:10;97873.69;;;-2.59;78.11
12146;BME280;6136;47.032;15.398;2023-04-05T04:26:44;97887.56;;;-2.61;79.22
12146;BME280;6136;47.032;15.398;2023-04-05T04:29:26;97881.50;;;-2.63;77.54
12146;BME280;6136;47.032;15.398;2023-04-05T04:32:18;97879.78;;;-2.61;78.01
12146;BME280;6136;47.032;15.398;2023-04-05T04:35:10;97885.00;;;-2.70;78.82
12146;BME280;6136;47.032;15.398;2023-04-05T04:38:00;97895.41;;;-2.77;78.95
12146;BME280;6136;47.032;15.398;2023-04-05T04:41:05;97893.66;;;-2.71;79.64
12146;BME280;6136;47.032;15.398;2023-04-05T04:43:49;97894.53;;;-2.68;80.13
12146;BME280;6136;47.032;15.398;2023-04-05T04:46:42;97893.63;;;-2.65;79.78
12146;BME280;6136;47.032;15.398;2023-04-05T04:49:15;97897.94;;;-2.63;79.39
12146;BME280;6136;47.032;15.398;2023-04-05T04:51:47;97879.81;;;-2.70;78.89
12146;BME280;6136;47.032;15.398;2023-04-05T04:54:19;97897.03;;;-2.53;79.79
12146;BME280;6136;47.032;15.398;2023-04-05T04:56:48;97895.28;;;-2.51;79.88
12146;BME280;6136;47.032;15.398;2023-04-05T04:59:16;97897.00;;;-2.51;80.14
12146;BME280;6136;47.032;15.398;2023-04-05T05:01:45;97890.09;;;-2.49;79.95
12146;BME280;6136;47.032;15.398;2023-04-05T05:04:15;97887.47;;;-2.46;79.59
12146;BME280;6136;47.032;15.398;2023-04-05T05:06:44;97898.72;;;-2.47;80.56
12146;BME280;6136;47.032;15.398;2023-04-05T05:09:12;97896.09;;;-2.41;79.20
12146;BME280;6136;47.032;15.398;2023-04-05T05:11:47;97902.13;;;-2.38;79.80
12146;BME280;6136;47.032;15.398;2023-04-05T05:14:15;97902.91;;;-2.28;79.08
12146;BME280;6136;47.032;15.398;2023-04-05T05:16:44;97899.44;;;-2.22;79.33
12146;BME280;6136;47.032;15.398;2023-04-05T05:19:12;97903.69;;;-2.14;77.82
12146;BME280;6136;47.032;15.398;2023-04-05T05:21:48;97907.09;;;-2.06;77.21
12146;BME280;6136;47.032;15.398;2023-04-05T05:24:21;97908.81;;;-2.00;77.66
12146;BME280;6136;47.032;15.398;2023-04-05T05:26:49;97901.84;;;-1.93;77.15
12146;BME280;6136;47.032;15.398;2023-04-05T05:29:18;97908.72;;;-1.86;76.72
12146;BME280;6136;47.032;15.398;2023-04-05T05:31:48;97913.84;;;-1.80;77.19
12146;BME280;6136;47.032;15.398;2023-04-05T05:34:17;97911.19;;;-1.76;77.06
12146;BME280;6136;47.032;15.398;2023-04-05T05:36:53;97920.66;;;-1.66;74.95
12146;BME280;6136;47.032;15.398;2023-04-05T05:39:22;97902.47;;;-1.64;75.40
12146;BME280;6136;47.032;15.398;2023-04-05T05:41:51;97926.53;;;-1.44;75.66
12146;BME280;6136;47.032;15.398;2023-04-05T05:44:19;97925.53;;;-1.31;74.83
12146;BME280;6136;47.032;15.398;2023-04-05T05:46:47;97922.03;;;-1.27;73.40
12146;BME280;6136;47.032;15.398;2023-04-05T05:49:16;97930.56;;;-1.12;73.94
12146;BME280;6136;47.032;15.398;2023-04-05T05:51:44;97933.78;;;-0.92;71.18
12146;BME280;6136;47.032;15.398;2023-04-05T05:54:14;97934.50;;;-0.78;70.25
12146;BME280;6136;47.032;15.398;2023-04-05T05:56:42;97938.72;;;-0.68;70.68
12146;BME280;6136;47.032;15.398;2023-04-05T05:59:11;97943.09;;;-0.73;70.00
12146;BME280;6136;47.032;15.398;2023-04-05T06:01:42;97939.50;;;-0.61;70.23
12146;BME280;6136;47.032;15.398;2023-04-05T06:04:12;97936.72;;;-0.48;67.71
12146;BME280;6136;47.032;15.398;2023-04-05T06:06:42;97944.38;;;-0.35;65.67
12146;BME280;6136;47.032;15.398;2023-04-05T06:09:14;97926.03;;;-0.28;65.80
12146;BME280;6136;47.032;15.398;2023-04-05T06:11:42;97937.09;;;-0.11;64.61
12146;BME280;6136;47.032;15.398;2023-04-05T06:14:23;97942.97;;;0.02;64.07
12146;BME280;6136;47.032;15.398;2023-04-05T06:16:51;97915.06;;;0.10;64.73
12146;BME280;6136;47.032;15.398;2023-04-05T06:19:20;97930.56;;;0.21;63.11
12146;BME280;6136;47.032;15.398;2023-04-05T06:21:48;97935.59;;;0.31;63.66
12146;BME280;6136;47.032;15.398;2023-04-05T06:24:18;97937.28;;;0.35;63.27
12146;BME280;6136;47.032;15.398;2023-04-05T06:26:47;97937.06;;;0.48;61.36
12146;BME280;6136;47.032;15.398;2023-04-05T06:29:15;97928.84;;;0.70;62.03
12146;BME280;6136;47.032;15.398;2023-04-05T06:31:44;97933.66;;;0.93;62.24
12146;BME280;6136;47.032;15.398;2023-04-05T06:34:15;97929.09;;;1.04;60.16
12146;BME280;6136;47.032;15.398;2023-04-05T06:36:47;97932.41;;;1.12;59.28
12146;BME280;6136;47.032;15.398;2023-04-05T06:39:21;97931.03;;;1.39;60.08
12146;BME280;6136;47.032;15.398;2023-04-05T06:41:52;97928.59;;;1.32;58.81
12146;BME280;6136;47.032;15.398;2023-04-05T06:44:40;97939.63;;;1.46;57.34
12146;BME280;6136;47.032;15.398;2023-04-05T06:47:08;97932.97;;;1.71;59.69
12146;BME280;6136;47.032;15.398;2023-04-05T06:49:49;97935.88;;;1.98;58.08
12146;BME280;6136;47.032;15.398;2023-04-05T06:52:24;97924.69;;;1.92;55.02
12146;BME280;6136;47.032;15.398;2023-04-05T06:54:59;97935.53;;;2.13;56.82
12146;BME280;6136;47.032;15.398;2023-04-05T06:57:28;97936.75;;;2.37;56.00
12146;BME280;6136;47.032;15.398;2023-04-05T06:59:56;97935.00;;;2.37;54.08
12146;BME280;6136;47.032;15.398;2023-04-05T07:02:25;97931.66;;;2.66;54.86
12146;BME280;6136;47.032;15.398;2023-04-05T07:04:54;97944.00;;;2.95;53.91
12146;BME280;6136;47.032;15.398;2023-04-05T07:07:29;97933.13;;;3.10;52.21
12146;BME280;6136;47.032;15.398;2023-04-05T07:10:03;97937.13;;;3.23;50.69
12146;BME280;6136;47.032;15.398;2023-04-05T07:12:32;97938.50;;;3.04;53.63
12146;BME280;6136;47.032;15.398;2023-04-05T07:15:00;97938.47;;;3.38;50.92
12146;BME280;6136;47.032;15.398;2023-04-05T07:17:31;97935.31;;;3.85;51.75
12146;BME280;6136;47.032;15.398;2023-04-05T07:20:00;97937.75;;;4.49;49.28
12146;BME280;6136;47.032;15.398;2023-04-05T07:22:32;97928.38;;;5.42;46.53
12146;BME280;6136;47.032;15.398;2023-04-05T07:25:03;97924.38;;;6.04;45.41
12146;BME280;6136;47.032;15.398;2023-04-05T07:27:34;97930.47;;;6.71;44.13
12146;BME280;6136;47.032;15.398;2023-04-05T07:30:04;97923.72;;;7.26;42.36
12146;BME280;6136;47.032;15.398;2023-04-05T07:32:34;97914.28;;;8.17;39.51
12146;BME280;6136;47.032;15.398;2023-04-05T07:35:04;97918.25;;;8.64;38.85
12146;BME280;6136;47.032;15.398;2023-04-05T07:37:34;97915.28;;;9.06;40.46
12146;BME280;6136;47.032;15.398;2023-04-05T07:40:06;97912.28;;;9.79;37.66
12146;BME280;6136;47.032;15.398;2023-04-05T07:42:34;97915.84;;;10.11;36.47
12146;BME280;6136;47.032;15.398;2023-04-05T07:45:03;97911.34;;;10.13;36.59
12146;BME280;6136;47.032;15.398;2023-04-05T07:47:32;97907.59;;;10.80;36.08
12146;BME280;6136;47.032;15.398;2023-04-05T07:50:00;97912.28;;;11.35;35.48
12146;BME280;6136;47.032;15.398;2023-04-05T07:52:28;97919.59;;;11.01;35.06
12146;BME280;6136;47.032;15.398;2023-04-05T07:54:57;97911.16;;;11.39;34.01
12146;BME280;6136;47.032;15.398;2023-04-05T07:57:27;97910.34;;;11.08;33.96
12146;BME280;6136;47.032;15.398;2023-04-05T07:59:55;97907.25;;;11.30;35.34
12146;BME280;6136;47.032;15.398;2023-04-05T08:02:24;97904.97;;;10.94;33.93
12146;BME280;6136;47.032;15.398;2023-04-05T08:04:53;97891.06;;;11.49;33.32
12146;BME280;6136;47.032;15.398;2023-04-05T08:07:22;97900.75;;;11.64;32.20
12146;BME280;6136;47.032;15.398;2023-04-05T08:09:52;97893.78;;;11.91;33.21
12146;BME280;6136;47.032;15.398;2023-04-05T08:12:23;97888.88;;;11.85;33.66
12146;BME280;6136;47.032;15.398;2023-04-05T08:14:53;97880.16;;;12.24;32.45
12146;BME280;6136;47.032;15.398;2023-04-05T08:17:21;97891.78;;;12.09;32.43
12146;BME280;6136;47.032;15.398;2023-04-05T08:19:53;97880.47;;;12.20;32.48
12146;BME280;6136;47.032;15.398;2023-04-05T08:22:22;97883.03;;;12.89;30.71
12146;BME280;6136;47.032;15.398;2023-04-05T08:24:50;97865.34;;;12.88;30.45
12146;BME280;6136;47.032;15.398;2023-04-05T08:27:19;97890.81;;;13.05;30.55
12146;BME280;6136;47.032;15.398;2023-04-05T08:29:47;97891.22;;;12.59;31.51
12146;BME280;6136;47.032;15.398;2023-04-05T08:32:17;97883.19;;;12.73;30.21
12146;BME280;6136;47.032;15.398;2023-04-05T08:34:46;97887.97;;;13.08;29.97
12146;BME280;6136;47.032;15.398;2023-04-05T08:37:15;97875.59;;;13.84;29.73
12146;BME280;6136;47.032;15.398;2023-04-05T08:39:43;97886.97;;;13.23;28.66
12146;BME280;6136;47.032;15.398;2023-04-05T08:42:15;97879.72;;;13.25;28.08
12146;BME280;6136;47.032;15.398;2023-04-05T08:44:45;97868.75;;;14.06;27.34
12146;BME280;6136;47.032;15.398;2023-04-05T08:47:22;97868.28;;;15.20;26.85
12146;BME280;6136;47.032;15.398;2023-04-05T08:49:50;97866.00;;;14.44;26.73
12146;BME280;6136;47.032;15.398;2023-04-05T08:52:19;97851.81;;;13.81;26.63
12146;BME280;6136;47.032;15.398;2023-04-05T08:54:48;97857.28;;;14.16;26.85
12146;BME280;6136;47.032;15.398;2023-04-05T08:57:17;97858.25;;;14.64;26.03
12146;BME280;6136;47.032;15.398;2023-04-05T08:59:46;97858.59;;;15.19;26.64
12146;BME280;6136;47.032;15.398;2023-04-05T09:02:17;97849.00;;;15.73;26.66
12146;BME280;6136;47.032;15.398;2023-04-05T09:04:49;97844.78;;;15.36;25.72
12146;BME280;6136;47.032;15.398;2023-04-05T09:07:19;97847.91;;;15.19;26.15
12146;BME280;6136;47.032;15.398;2023-04-05T09:09:51;97840.38;;;16.03;25.96
12146;BME280;6136;47.032;15.398;2023-04-05T09:12:21;97833.09;;;15.83;26.01
12146;BME280;6136;47.032;15.398;2023-04-05T09:14:51;97831.97;;;16.30;25.46
12146;BME280;6136;47.032;15.398;2023-04-05T09:17:20;97824.72;;;15.76;26.32
12146;BME280;6136;47.032;15.398;2023-04-05T09:19:51;97829.06;;;17.08;24.75
12146;BME280;6136;47.032;15.398;2023-04-05T09:22:21;97826.91;;;15.82;25.77
12146;BME280;6136;47.032;15.398;2023-04-05T09:24:50;97820.97;;;16.55;25.72
12146;BME280;6136;47.032;15.398;2023-04-05T09:27:21;97817.91;;;16.06;24.49
12146;BME280;6136;47.032;15.398;2023-04-05T09:29:55;97814.66;;;16.45;24.11
12146;BME280;6136;47.032;15.398;2023-04-05T09:32:25;97805.41;;;16.49;22.93
12146;BME280;6136;47.032;15.398;2023-04-05T09:34:59;97806.00;;;16.53;25.30
12146;BME280;6136;47.032;15.398;2023-04-05T09:37:32;97793.22;;;17.62;22.94
12146;BME280;6136;47.032;15.398;2023-04-05T09:40:02;97794.56;;;17.35;22.85
12146;BME280;6136;47.032;15.398;2023-04-05T09:42:42;97795.88;;;17.92;22.73
12146;BME280;6136;47.032;15.398;2023-04-05T09:45:11;97800.03;;;18.06;22.21
12146;BME280;6136;47.032;15.398;2023-04-05T09:47:56;97793.50;;;18.08;23.22
12146;BME280;6136;47.032;15.398;2023-04-05T09:50:26;97793.03;;;17.84;21.64
12146;BME280;6136;47.032;15.398;2023-04-05T09:53:06;97783.84;;;18.27;23.32
12146;BME280;6136;47.032;15.398;2023-04-05T09:55:35;97774.06;;;18.06;22.67
12146;BME280;6136;47.032;15.398;2023-04-05T09:58:04;97777.50;;;18.28;23.50
12146;BME280;6136;47.032;15.398;2023-04-05T10:00:35;97777.47;;;16.42;21.97
12146;BME280;6136;47.032;15.398;2023-04-05T10:03:04;97767.19;;;16.69;22.40
12146;BME280;6136;47.032;15.398;2023-04-05T10:05:34;97770.88;;;17.10;21.64
12146;BME280;6136;47.032;15.398;2023-04-05T10:08:02;97776.69;;;17.15;21.85
12146;BME280;6136;47.032;15.398;2023-04-05T10:10:37;97767.22;;;17.41;21.40
12146;BME280;6136;47.032;15.398;2023-04-05T10:13:13;97757.44;;;17.52;22.33
12146;BME280;6136;47.032;15.398;2023-04-05T10:15:44;97745.31;;;17.06;21.06
12146;BME280;6136;47.032;15.398;2023-04-05T10:18:17;97740.09;;;17.86;21.88
12146;BME280;6136;47.032;15.398;2023-04-05T10:20:50;97742.75;;;19.13;21.71
12146;BME280;6136;47.032;15.398;2023-04-05T10:23:23;97727.84;;;19.84;18.77
12146;BME280;6136;47.032;15.398;2023-04-05T10:26:03;97735.28;;;17.50;20.97
12146;BME280;6136;47.032;15.398;2023-04-05T10:28:36;97728.94;;;17.51;21.61
12146;BME280;6136;47.032;15.398;2023-04-05T10:31:09;97735.28;;;17.80;20.83
12146;BME280;6136;47.032;15.398;2023-04-05T10:33:54;97719.72;;;16.40;22.95
12146;BME280;6136;47.032;15.398;2023-04-05T10:36:34;97715.88;;;17.97;20.04
12146;BME280;6136;47.032;15.398;2023-04-05T10:39:11;97721.78;;;17.91;21.48
12146;BME280;6136;47.032;15.398;2023-04-05T10:41:41;97722.97;;;17.37;21.12
12146;BME280;6136;47.032;15.398;2023-04-05T10:44:14;97710.63;;;17.04;22.81
12146;BME280;6136;47.032;15.398;2023-04-05T10:46:53;97720.16;;;16.88;21.73
12146;BME280;6136;47.032;15.398;2023-04-05T10:49:28;97710.22;;;16.79;22.34
12146;BME280;6136;47.032;15.398;2023-04-05T10:52:01;97708.78;;;16.95;20.95
12146;BME280;6136;47.032;15.398;2023-04-05T10:54:33;97715.53;;;17.51;22.46
12146;BME280;6136;47.032;15.398;2023-04-05T10:57:04;97704.69;;;17.22;20.65
12146;BME280;6136;47.032;15.398;2023-04-05T10:59:43;97696.84;;;18.19;21.55
12146;BME280;6136;47.032;15.398;2023-04-05T11:02:13;97683.97;;;19.10;19.36
12146;BME280;6136;47.032;15.398;2023-04-05T11:04:42;97687.09;;;19.52;17.80
12146;BME280;6136;47.032;15.398;2023-04-05T11:07:13;97690.47;;;18.01;21.54
12146;BME280;6136;47.032;15.398;2023-04-05T11:09:54;97693.00;;;17.93;21.09
12146;BME280;6136;47.032;15.398;2023-04-05T11:15:30;97686.25;;;18.18;19.40
12146;BME280;6136;47.032;15.398;2023-04-05T11:18:07;97671.38;;;19.84;17.91
12146;BME280;6136;47.032;15.398;2023-04-05T11:20:47;97672.41;;;19.36;17.64
12146;BME280;6136;47.032;15.398;2023-04-05T11:23:20;97666.47;;;20.42;17.33
12146;BME280;6136;47.032;15.398;2023-04-05T11:25:50;97669.34;;;19.68;18.43
12146;BME280;6136;47.032;15.398;2023-04-05T11:28:24;97665.03;;;19.02;20.80
12146;BME280;6136;47.032;15.398;2023-04-05T11:30:53;97667.59;;;19.95;20.68
12146;BME280;6136;47.032;15.398;2023-04-05T11:33:35;97664.19;;;19.01;18.66
12146;BME280;6136;47.032;15.398;2023-04-05T11:36:04;97668.34;;;20.32;17.60
12146;BME280;6136;47.032;15.398;2023-04-05T11:38:34;97659.88;;;21.24;16.60
12146;BME280;6136;47.032;15.398;2023-04-05T11:41:10;97653.81;;;19.80;17.81
12146;BME280;6136;47.032;15.398;2023-04-05T11:43:43;97657.56;;;20.32;18.54
12146;BME280;6136;47.032;15.398;2023-04-05T11:46:13;97647.19;;;21.92;16.59
12146;BME280;6136;47.032;15.398;2023-04-05T11:48:42;97648.44;;;21.30;17.29
12146;BME280;6136;47.032;15.398;2023-04-05T11:51:10;97652.78;;;19.91;19.50
12146;BME280;6136;47.032;15.398;2023-04-05T11:53:45;97636.03;;;18.58;19.61
12146;BME280;6136;47.032;15.398;2023-04-05T11:56:13;97642.25;;;18.59;19.66
12146;BME280;6136;47.032;15.398;2023-04-05T11:58:42;97635.34;;;19.95;18.69
12146;BME280;6136;47.032;15.398;2023-04-05T12:01:11;97632.06;;;19.73;18.81
12146;BME280;6136;47.032;15.398;2023-04-05T12:03:39;97625.97;;;19.44;18.62
12146;BME280;6136;47.032;15.398;2023-04-05T12:06:08;97624.19;;;20.61;17.03
12146;BME280;6136;47.032;15.398;2023-04-05T12:08:37;97632.25;;;19.90;17.47
12146;BME280;6136;47.032;15.398;2023-04-05T12:11:09;97623.09;;;19.83;18.72
12146;BME280;6136;47.032;15.398;2023-04-05T12:13:38;97631.66;;;19.96;18.62
12146;BME280;6136;47.032;15.398;2023-04-05T12:16:07;97626.06;;;19.62;18.05
12146;BME280;6136;47.032;15.398;2023-04-05T12:18:36;97636.19;;;19.04;18.19
12146;BME280;6136;47.032;15.398;2023-04-05T12:21:06;97622.91;;;20.47;17.78
12146;BME280;6136;47.032;15.398;2023-04-05T12:23:36;97604.41;;;22.38;15.82
12146;BME280;6136;47.032;15.398;2023-04-05T12:26:06;97612.06;;;23.54;14.94
12146;BME280;6136;47.032;15.398;2023-04-05T12:28:57;97619.13;;;20.83;17.26
12146;BME280;6136;47.032;15.398;2023-04-05T12:31:37;97598.19;;;22.13;15.98
12146;BME280;6136;47.032;15.398;2023-04-05T12:34:07;97608.31;;;21.01;17.97
12146;BME280;6136;47.032;15.398;2023-04-05T12:36:36;97612.03;;;22.67;15.92
12146;BME280;6136;47.032;15.398;2023-04-05T12:39:08;97596.09;;;23.68;15.26
12146;BME280;6136;47.032;15.398;2023-04-05T12:41:37;97613.81;;;22.01;16.59
12146;BME280;6136;47.032;15.398;2023-04-05T12:44:13;97587.75;;;23.30;15.23
12146;BME280;6136;47.032;15.398;2023-04-05T12:46:43;97589.59;;;22.66;16.24
12146;BME280;6136;47.032;15.398;2023-04-05T12:49:12;97596.69;;;23.86;14.56
12146;BME280;6136;47.032;15.398;2023-04-05T12:51:41;97584.47;;;23.12;15.43
12146;BME280;6136;47.032;15.398;2023-04-05T12:54:11;97589.50;;;21.85;15.72
12146;BME280;6136;47.032;15.398;2023-04-05T12:56:41;97585.03;;;20.92;17.17
12146;BME280;6136;47.032;15.398;2023-04-05T12:59:11;97574.78;;;21.63;16.75
12146;BME280;6136;47.032;15.398;2023-04-05T13:01:39;97572.41;;;21.68;17.39
12146;BME280;6136;47.032;15.398;2023-04-05T13:04:08;97570.44;;;21.37;17.18
12146;BME280;6136;47.032;15.398;2023-04-05T13:06:39;97567.38;;;20.46;18.26
12146;BME280;6136;47.032;15.398;2023-04-05T13:09:08;97564.38;;;20.31;18.86
12146;BME280;6136;47.032;15.398;2023-04-05T13:11:36;97567.06;;;20.49;18.15
12146;BME280;6136;47.032;15.398;2023-04-05T13:14:05;97568.00;;;20.40;17.70
12146;BME280;6136;47.032;15.398;2023-04-05T13:16:35;97554.47;;;22.10;16.20
12146;BME280;6136;47.032;15.398;2023-04-05T13:19:04;97563.88;;;21.05;18.18
12146;BME280;6136;47.032;15.398;2023-04-05T13:21:32;97572.53;;;20.39;18.03
12146;BME280;6136;47.032;15.398;2023-04-05T13:24:01;97555.84;;;21.47;17.42
12146;BME280;6136;47.032;15.398;2023-04-05T13:26:30;97550.75;;;22.02;17.00
12146;BME280;6136;47.032;15.398;2023-04-05T13:28:58;97553.47;;;22.43;15.72
12146;BME280;6136;47.032;15.398;2023-04-05T13:31:27;97559.38;;;22.06;15.97
12146;BME280;6136;47.032;15.398;2023-04-05T13:33:57;97547.03;;;21.03;17.23